sensor_id;sensor_type;location;lat;lon;timestamp;P1;durP1;ratioP1;P2;durP2;ratioP2
46284;SDS011;32018;59.182;18.148;2022-08-03T00:01:15;0.52;;;0.40;;
46284;SDS011;32018;59.182;18.148;2022-08-03T00:03:40;0.32;;;0.32;;
46284;SDS011;32018;59.182;18.148;2022-08-03T00:06:06;0.50;;;0.40;;
46284;SDS011;32018;59.182;18.148;2022-08-03T00:08:31;1.25;;;0.63;;
46284;SDS011;32018;59.182;18.148;2022-08-03T00:10:56;0.50;;;0.40;;
46284;SDS011;32018;59.182;18.148;2022-08-03T00:13:22;0.50;;;0.40;;
46284;SDS011;32018;59.182;18.148;2022-08-03T00:15:47;0.60;;;0.30;;
46284;SDS011;32018;59.182;18.148;2022-08-03T00:18:12;0.55;;;0.35;;
46284;SDS011;32018;59.182;18.148;2022-08-03T00:20:37;0.55;;;0.38;;
46284;SDS011;32018;59.182;18.148;2022-08-03T00:23:03;0.65;;;0.40;;
46284;SDS011;32018;59.182;18.148;2022-08-03T00:25:28;0.77;;;0.47;;
46284;SDS011;32018;59.182;18.148;2022-08-03T00:27:53;0.30;;;0.30;;
46284;SDS011;32018;59.182;18.148;2022-08-03T00:30:19;0.33;;;0.30;;
46284;SDS011;32018;59.182;18.148;2022-08-03T00:32:44;1.00;;;0.40;;
46284;SDS011;32018;59.182;18.148;2022-08-03T00:35:09;0.90;;;0.43;;
46284;SDS011;32018;59.182;18.148;2022-08-03T00:37:35;0.30;;;0.30;;
46284;SDS011;32018;59.182;18.148;2022-08-03T00:40:01;1.23;;;0.70;;
46284;SDS011;32018;59.182;18.148;2022-08-03T00:42:26;1.23;;;0.50;;
46284;SDS011;32018;59.182;18.148;2022-08-03T00:44:52;0.75;;;0.45;;
46284;SDS011;32018;59.182;18.148;2022-08-03T00:47:17;1.30;;;0.60;;
46284;SDS011;32018;59.182;18.148;2022-08-03T00:49:42;0.83;;;0.33;;
46284;SDS011;32018;59.182;18.148;2022-08-03T00:52:08;0.97;;;0.43;;
46284;SDS011;32018;59.182;18.148;2022-08-03T00:54:34;0.50;;;0.47;;
46284;SDS011;32018;59.182;18.148;2022-08-03T00:57:00;0.75;;;0.30;;
46284;SDS011;32018;59.182;18.148;2022-08-03T00:59:25;0.85;;;0.47;;
46284;SDS011;32018;59.182;18.148;2022-08-03T01:01:52;1.33;;;0.40;;
46284;SDS011;32018;59.182;18.148;2022-08-03T01:04:17;1.65;;;0.43;;
46284;SDS011;32018;59.182;18.148;2022-08-03T01:06:45;0.93;;;0.50;;
46284;SDS011;32018;59.182;18.148;2022-08-03T01:12:00;1.30;;;0.47;;
46284;SDS011;32018;59.182;18.148;2022-08-03T01:14:26;1.20;;;0.55;;
46284;SDS011;32018;59.182;18.148;2022-08-03T01:32:04;1.08;;;0.60;;
46284;SDS011;32018;59.182;18.148;2022-08-03T01:34:31;1.42;;;0.50;;
46284;SDS011;32018;59.182;18.148;2022-08-03T01:36:58;0.20;;;0.20;;
46284;SDS011;32018;59.182;18.148;2022-08-03T01:39:27;4.47;;;0.60;;
46284;SDS011;32018;59.182;18.148;2022-08-03T01:41:54;0.82;;;0.50;;
46284;SDS011;32018;59.182;18.148;2022-08-03T01:44:24;0.50;;;0.38;;
46284;SDS011;32018;59.182;18.148;2022-08-03T01:46:49;1.02;;;0.57;;
46284;SDS011;32018;59.182;18.148;2022-08-03T01:49:15;0.40;;;0.30;;
46284;SDS011;32018;59.182;18.148;2022-08-03T01:51:42;0.73;;;0.45;;
46284;SDS011;32018;59.182;18.148;2022-08-03T01:54:11;0.50;;;0.30;;
46284;SDS011;32018;59.182;18.148;2022-08-03T01:56:37;0.65;;;0.30;;
46284;SDS011;32018;59.182;18.148;2022-08-03T01:59:03;0.98;;;0.50;;
46284;SDS011;32018;59.182;18.148;2022-08-03T02:01:29;0.40;;;0.30;;
46284;SDS011;32018;59.182;18.148;2022-08-03T02:03:55;0.43;;;0.38;;
46284;SDS011;32018;59.182;18.148;2022-08-03T02:06:22;0.82;;;0.40;;
46284;SDS011;32018;59.182;18.148;2022-08-03T02:08:49;0.30;;;0.30;;
46284;SDS011;32018;59.182;18.148;2022-08-03T02:11:15;1.17;;;0.60;;
46284;SDS011;32018;59.182;18.148;2022-08-03T02:13:40;1.08;;;0.40;;
46284;SDS011;32018;59.182;18.148;2022-08-03T02:16:06;0.40;;;0.30;;
46284;SDS011;32018;59.182;18.148;2022-08-03T02:18:31;0.93;;;0.45;;
46284;SDS011;32018;59.182;18.148;2022-08-03T02:20:57;0.90;;;0.55;;
46284;SDS011;32018;59.182;18.148;2022-08-03T02:23:23;0.40;;;0.20;;
46284;SDS011;32018;59.182;18.148;2022-08-03T02:25:50;0.53;;;0.40;;
46284;SDS011;32018;59.182;18.148;2022-08-03T02:28:18;0.20;;;0.20;;
46284;SDS011;32018;59.182;18.148;2022-08-03T02:30:44;0.32;;;0.20;;
46284;SDS011;32018;59.182;18.148;2022-08-03T02:33:11;1.00;;;0.40;;
46284;SDS011;32018;59.182;18.148;2022-08-03T02:35:38;1.25;;;0.30;;
46284;SDS011;32018;59.182;18.148;2022-08-03T02:38:04;1.63;;;0.57;;
46284;SDS011;32018;59.182;18.148;2022-08-03T02:40:31;2.53;;;0.40;;
46284;SDS011;32018;59.182;18.148;2022-08-03T02:43:09;0.50;;;0.20;;
46284;SDS011;32018;59.182;18.148;2022-08-03T02:45:37;0.50;;;0.32;;
46284;SDS011;32018;59.182;18.148;2022-08-03T02:48:03;0.40;;;0.30;;
46284;SDS011;32018;59.182;18.148;2022-08-03T02:50:29;1.27;;;0.40;;
46284;SDS011;32018;59.182;18.148;2022-08-03T02:52:55;4.85;;;0.40;;
46284;SDS011;32018;59.182;18.148;2022-08-03T02:55:21;1.45;;;0.40;;
46284;SDS011;32018;59.182;18.148;2022-08-03T02:57:47;0.90;;;0.40;;
46284;SDS011;32018;59.182;18.148;2022-08-03T03:00:13;0.38;;;0.30;;
46284;SDS011;32018;59.182;18.148;2022-08-03T03:02:39;0.32;;;0.22;;
46284;SDS011;32018;59.182;18.148;2022-08-03T03:05:05;0.85;;;0.40;;
46284;SDS011;32018;59.182;18.148;2022-08-03T03:07:32;1.88;;;0.40;;
46284;SDS011;32018;59.182;18.148;2022-08-03T03:09:58;1.13;;;0.40;;
46284;SDS011;32018;59.182;18.148;2022-08-03T03:12:23;0.22;;;0.20;;
46284;SDS011;32018;59.182;18.148;2022-08-03T03:14:50;0.55;;;0.40;;
46284;SDS011;32018;59.182;18.148;2022-08-03T03:17:15;0.73;;;0.40;;
46284;SDS011;32018;59.182;18.148;2022-08-03T03:19:41;0.75;;;0.35;;
46284;SDS011;32018;59.182;18.148;2022-08-03T03:22:09;0.20;;;0.20;;
46284;SDS011;32018;59.182;18.148;2022-08-03T03:24:35;1.13;;;0.55;;
46284;SDS011;32018;59.182;18.148;2022-08-03T03:27:00;0.30;;;0.30;;
46284;SDS011;32018;59.182;18.148;2022-08-03T03:29:25;0.30;;;0.20;;
46284;SDS011;32018;59.182;18.148;2022-08-03T03:31:52;0.30;;;0.25;;
46284;SDS011;32018;59.182;18.148;2022-08-03T03:34:17;0.57;;;0.30;;
46284;SDS011;32018;59.182;18.148;2022-08-03T03:36:43;0.30;;;0.30;;
46284;SDS011;32018;59.182;18.148;2022-08-03T03:39:08;0.30;;;0.30;;
46284;SDS011;32018;59.182;18.148;2022-08-03T03:41:34;0.30;;;0.30;;
46284;SDS011;32018;59.182;18.148;2022-08-03T03:44:00;0.30;;;0.20;;
46284;SDS011;32018;59.182;18.148;2022-08-03T03:46:25;1.63;;;0.40;;
46284;SDS011;32018;59.182;18.148;2022-08-03T03:48:51;0.73;;;0.43;;
46284;SDS011;32018;59.182;18.148;2022-08-03T03:51:16;1.08;;;0.38;;
46284;SDS011;32018;59.182;18.148;2022-08-03T03:53:54;2.92;;;0.43;;
46284;SDS011;32018;59.182;18.148;2022-08-03T03:56:20;0.77;;;0.35;;
46284;SDS011;32018;59.182;18.148;2022-08-03T03:58:45;1.88;;;0.68;;
46284;SDS011;32018;59.182;18.148;2022-08-03T04:01:11;0.37;;;0.30;;
46284;SDS011;32018;59.182;18.148;2022-08-03T04:03:36;1.27;;;0.55;;
46284;SDS011;32018;59.182;18.148;2022-08-03T04:06:02;0.40;;;0.27;;
46284;SDS011;32018;59.182;18.148;2022-08-03T04:08:45;2.15;;;0.50;;
46284;SDS011;32018;59.182;18.148;2022-08-03T04:16:57;0.50;;;0.35;;
46284;SDS011;32018;59.182;18.148;2022-08-03T04:19:27;0.17;;;0.17;;
46284;SDS011;32018;59.182;18.148;2022-08-03T04:21:55;0.50;;;0.40;;
46284;SDS011;32018;59.182;18.148;2022-08-03T04:24:21;1.05;;;0.40;;
46284;SDS011;32018;59.182;18.148;2022-08-03T04:26:47;0.47;;;0.20;;
46284;SDS011;32018;59.182;18.148;2022-08-03T04:29:13;0.65;;;0.38;;
46284;SDS011;32018;59.182;18.148;2022-08-03T04:31:39;0.70;;;0.32;;
46284;SDS011;32018;59.182;18.148;2022-08-03T04:34:05;0.30;;;0.30;;
46284;SDS011;32018;59.182;18.148;2022-08-03T04:36:32;0.30;;;0.20;;
46284;SDS011;32018;59.182;18.148;2022-08-03T04:39:01;1.63;;;0.40;;
46284;SDS011;32018;59.182;18.148;2022-08-03T04:41:29;2.35;;;0.50;;
46284;SDS011;32018;59.182;18.148;2022-08-03T04:43:55;1.00;;;0.30;;
46284;SDS011;32018;59.182;18.148;2022-08-03T04:46:21;1.35;;;0.50;;
46284;SDS011;32018;59.182;18.148;2022-08-03T04:48:47;1.52;;;0.47;;
46284;SDS011;32018;59.182;18.148;2022-08-03T04:51:13;0.45;;;0.30;;
46284;SDS011;32018;59.182;18.148;2022-08-03T04:53:39;0.90;;;0.40;;
46284;SDS011;32018;59.182;18.148;2022-08-03T04:56:04;0.57;;;0.30;;
46284;SDS011;32018;59.182;18.148;2022-08-03T04:58:29;1.73;;;0.43;;
46284;SDS011;32018;59.182;18.148;2022-08-03T05:00:55;1.20;;;0.40;;
46284;SDS011;32018;59.182;18.148;2022-08-03T05:03:20;2.25;;;0.50;;
46284;SDS011;32018;59.182;18.148;2022-08-03T05:05:45;1.40;;;0.40;;
46284;SDS011;32018;59.182;18.148;2022-08-03T05:08:10;0.50;;;0.43;;
46284;SDS011;32018;59.182;18.148;2022-08-03T05:10:36;1.45;;;0.57;;
46284;SDS011;32018;59.182;18.148;2022-08-03T05:13:01;0.68;;;0.40;;
46284;SDS011;32018;59.182;18.148;2022-08-03T05:15:26;0.40;;;0.30;;
46284;SDS011;32018;59.182;18.148;2022-08-03T05:17:52;0.40;;;0.40;;
46284;SDS011;32018;59.182;18.148;2022-08-03T05:20:17;0.53;;;0.30;;
46284;SDS011;32018;59.182;18.148;2022-08-03T05:22:42;0.20;;;0.20;;
46284;SDS011;32018;59.182;18.148;2022-08-03T05:25:08;3.03;;;0.60;;
46284;SDS011;32018;59.182;18.148;2022-08-03T05:27:33;1.30;;;0.70;;
46284;SDS011;32018;59.182;18.148;2022-08-03T05:29:59;1.63;;;0.43;;
46284;SDS011;32018;59.182;18.148;2022-08-03T05:32:24;0.95;;;0.40;;
46284;SDS011;32018;59.182;18.148;2022-08-03T05:34:49;1.58;;;0.40;;
46284;SDS011;32018;59.182;18.148;2022-08-03T05:37:15;2.30;;;0.65;;
46284;SDS011;32018;59.182;18.148;2022-08-03T05:39:40;0.65;;;0.32;;
46284;SDS011;32018;59.182;18.148;2022-08-03T05:42:05;1.42;;;0.40;;
46284;SDS011;32018;59.182;18.148;2022-08-03T05:44:30;0.30;;;0.30;;
46284;SDS011;32018;59.182;18.148;2022-08-03T05:46:56;1.75;;;0.60;;
46284;SDS011;32018;59.182;18.148;2022-08-03T05:49:21;0.90;;;0.50;;
46284;SDS011;32018;59.182;18.148;2022-08-03T05:51:46;1.53;;;0.50;;
46284;SDS011;32018;59.182;18.148;2022-08-03T05:54:12;0.82;;;0.50;;
46284;SDS011;32018;59.182;18.148;2022-08-03T05:56:37;0.63;;;0.40;;
46284;SDS011;32018;59.182;18.148;2022-08-03T05:59:04;0.60;;;0.40;;
46284;SDS011;32018;59.182;18.148;2022-08-03T06:01:30;1.77;;;0.35;;
46284;SDS011;32018;59.182;18.148;2022-08-03T06:03:57;1.00;;;0.40;;
46284;SDS011;32018;59.182;18.148;2022-08-03T06:06:22;0.83;;;0.40;;
46284;SDS011;32018;59.182;18.148;2022-08-03T06:08:47;2.67;;;0.82;;
46284;SDS011;32018;59.182;18.148;2022-08-03T06:11:13;0.75;;;0.50;;
46284;SDS011;32018;59.182;18.148;2022-08-03T06:13:38;1.00;;;0.43;;
46284;SDS011;32018;59.182;18.148;2022-08-03T06:16:03;1.58;;;0.40;;
46284;SDS011;32018;59.182;18.148;2022-08-03T06:18:29;1.25;;;0.60;;
46284;SDS011;32018;59.182;18.148;2022-08-03T06:20:54;0.20;;;0.20;;
46284;SDS011;32018;59.182;18.148;2022-08-03T06:23:20;0.30;;;0.22;;
46284;SDS011;32018;59.182;18.148;2022-08-03T06:25:46;0.98;;;0.40;;
46284;SDS011;32018;59.182;18.148;2022-08-03T06:28:11;0.77;;;0.50;;
46284;SDS011;32018;59.182;18.148;2022-08-03T06:30:38;0.93;;;0.40;;
46284;SDS011;32018;59.182;18.148;2022-08-03T06:33:03;2.78;;;0.65;;
46284;SDS011;32018;59.182;18.148;2022-08-03T06:35:28;0.40;;;0.40;;
46284;SDS011;32018;59.182;18.148;2022-08-03T06:37:54;0.50;;;0.43;;
46284;SDS011;32018;59.182;18.148;2022-08-03T06:40:19;1.65;;;0.35;;
46284;SDS011;32018;59.182;18.148;2022-08-03T06:42:52;0.65;;;0.30;;
46284;SDS011;32018;59.182;18.148;2022-08-03T06:45:17;1.67;;;0.40;;
46284;SDS011;32018;59.182;18.148;2022-08-03T06:47:42;0.73;;;0.35;;
46284;SDS011;32018;59.182;18.148;2022-08-03T06:50:08;0.83;;;0.50;;
46284;SDS011;32018;59.182;18.148;2022-08-03T06:52:33;1.05;;;0.45;;
46284;SDS011;32018;59.182;18.148;2022-08-03T06:54:59;0.77;;;0.55;;
46284;SDS011;32018;59.182;18.148;2022-08-03T06:57:24;0.68;;;0.57;;
46284;SDS011;32018;59.182;18.148;2022-08-03T06:59:49;1.33;;;0.50;;
46284;SDS011;32018;59.182;18.148;2022-08-03T07:02:15;1.27;;;0.60;;
46284;SDS011;32018;59.182;18.148;2022-08-03T07:04:40;0.93;;;0.50;;
46284;SDS011;32018;59.182;18.148;2022-08-03T07:07:05;0.67;;;0.40;;
46284;SDS011;32018;59.182;18.148;2022-08-03T07:09:31;1.00;;;0.50;;
46284;SDS011;32018;59.182;18.148;2022-08-03T07:11:56;1.80;;;0.67;;
46284;SDS011;32018;59.182;18.148;2022-08-03T07:14:21;1.00;;;0.60;;
46284;SDS011;32018;59.182;18.148;2022-08-03T07:16:46;1.45;;;0.40;;
46284;SDS011;32018;59.182;18.148;2022-08-03T07:19:12;0.70;;;0.45;;
46284;SDS011;32018;59.182;18.148;2022-08-03T07:21:37;1.27;;;0.50;;
46284;SDS011;32018;59.182;18.148;2022-08-03T07:24:02;0.40;;;0.40;;
46284;SDS011;32018;59.182;18.148;2022-08-03T07:26:28;1.02;;;0.30;;
46284;SDS011;32018;59.182;18.148;2022-08-03T07:28:53;1.17;;;0.50;;
46284;SDS011;32018;59.182;18.148;2022-08-03T07:31:18;1.65;;;0.47;;
46284;SDS011;32018;59.182;18.148;2022-08-03T07:33:43;0.50;;;0.40;;
46284;SDS011;32018;59.182;18.148;2022-08-03T07:36:08;0.40;;;0.40;;
46284;SDS011;32018;59.182;18.148;2022-08-03T07:38:34;0.75;;;0.30;;
46284;SDS011;32018;59.182;18.148;2022-08-03T07:41:00;0.63;;;0.45;;
46284;SDS011;32018;59.182;18.148;2022-08-03T07:43:26;0.95;;;0.50;;
46284;SDS011;32018;59.182;18.148;2022-08-03T07:45:51;0.77;;;0.30;;
46284;SDS011;32018;59.182;18.148;2022-08-03T07:48:16;0.57;;;0.40;;
46284;SDS011;32018;59.182;18.148;2022-08-03T07:50:42;0.95;;;0.50;;
46284;SDS011;32018;59.182;18.148;2022-08-03T07:53:07;0.43;;;0.40;;
46284;SDS011;32018;59.182;18.148;2022-08-03T07:55:32;0.95;;;0.50;;
46284;SDS011;32018;59.182;18.148;2022-08-03T08:00:24;1.20;;;0.90;;
46284;SDS011;32018;59.182;18.148;2022-08-03T08:02:49;0.55;;;0.40;;
46284;SDS011;32018;59.182;18.148;2022-08-03T08:05:14;0.77;;;0.60;;
46284;SDS011;32018;59.182;18.148;2022-08-03T08:07:40;1.75;;;0.68;;
46284;SDS011;32018;59.182;18.148;2022-08-03T08:10:05;1.50;;;0.60;;
46284;SDS011;32018;59.182;18.148;2022-08-03T08:12:31;0.98;;;0.60;;
46284;SDS011;32018;59.182;18.148;2022-08-03T08:14:56;0.60;;;0.50;;
46284;SDS011;32018;59.182;18.148;2022-08-03T08:17:22;1.55;;;0.50;;
46284;SDS011;32018;59.182;18.148;2022-08-03T08:19:47;1.10;;;0.50;;
46284;SDS011;32018;59.182;18.148;2022-08-03T08:22:12;1.50;;;0.70;;
46284;SDS011;32018;59.182;18.148;2022-08-03T08:24:37;0.88;;;0.52;;
46284;SDS011;32018;59.182;18.148;2022-08-03T08:27:03;0.50;;;0.50;;
46284;SDS011;32018;59.182;18.148;2022-08-03T08:29:28;1.05;;;0.50;;
46284;SDS011;32018;59.182;18.148;2022-08-03T08:31:53;0.73;;;0.50;;
46284;SDS011;32018;59.182;18.148;2022-08-03T08:34:18;0.40;;;0.40;;
46284;SDS011;32018;59.182;18.148;2022-08-03T08:36:44;0.70;;;0.50;;
46284;SDS011;32018;59.182;18.148;2022-08-03T08:39:09;0.57;;;0.47;;
46284;SDS011;32018;59.182;18.148;2022-08-03T08:41:34;0.55;;;0.52;;
46284;SDS011;32018;59.182;18.148;2022-08-03T08:44:00;1.33;;;0.47;;
46284;SDS011;32018;59.182;18.148;2022-08-03T08:46:25;0.95;;;0.70;;
46284;SDS011;32018;59.182;18.148;2022-08-03T08:48:52;0.70;;;0.40;;
46284;SDS011;32018;59.182;18.148;2022-08-03T08:51:18;1.00;;;0.47;;
46284;SDS011;32018;59.182;18.148;2022-08-03T08:53:44;0.93;;;0.60;;
46284;SDS011;32018;59.182;18.148;2022-08-03T08:56:12;0.40;;;0.40;;
46284;SDS011;32018;59.182;18.148;2022-08-03T08:58:41;0.95;;;0.60;;
46284;SDS011;32018;59.182;18.148;2022-08-03T09:01:08;1.48;;;0.63;;
46284;SDS011;32018;59.182;18.148;2022-08-03T09:03:34;1.17;;;0.60;;
46284;SDS011;32018;59.182;18.148;2022-08-03T09:06:00;1.25;;;0.40;;
46284;SDS011;32018;59.182;18.148;2022-08-03T09:08:26;1.58;;;0.60;;
46284;SDS011;32018;59.182;18.148;2022-08-03T09:10:52;0.90;;;0.52;;
46284;SDS011;32018;59.182;18.148;2022-08-03T09:13:17;1.73;;;0.60;;
46284;SDS011;32018;59.182;18.148;2022-08-03T09:15:43;0.65;;;0.55;;
46284;SDS011;32018;59.182;18.148;2022-08-03T09:18:08;1.42;;;0.47;;
46284;SDS011;32018;59.182;18.148;2022-08-03T09:20:34;1.40;;;0.73;;
46284;SDS011;32018;59.182;18.148;2022-08-03T09:23:02;1.65;;;1.55;;
46284;SDS011;32018;59.182;18.148;2022-08-03T09:25:29;1.27;;;0.85;;
46284;SDS011;32018;59.182;18.148;2022-08-03T09:28:03;0.50;;;0.43;;
46284;SDS011;32018;59.182;18.148;2022-08-03T09:30:28;0.73;;;0.60;;
46284;SDS011;32018;59.182;18.148;2022-08-03T09:32:59;0.68;;;0.40;;
46284;SDS011;32018;59.182;18.148;2022-08-03T09:35:25;1.08;;;0.70;;
46284;SDS011;32018;59.182;18.148;2022-08-03T09:38:07;1.35;;;0.40;;
46284;SDS011;32018;59.182;18.148;2022-08-03T09:40:35;1.40;;;0.70;;
46284;SDS011;32018;59.182;18.148;2022-08-03T09:43:01;0.50;;;0.50;;
46284;SDS011;32018;59.182;18.148;2022-08-03T09:45:26;5.00;;;0.90;;
46284;SDS011;32018;59.182;18.148;2022-08-03T09:47:51;3.45;;;0.60;;
46284;SDS011;32018;59.182;18.148;2022-08-03T09:50:17;0.93;;;0.50;;
46284;SDS011;32018;59.182;18.148;2022-08-03T09:52:42;0.90;;;0.60;;
46284;SDS011;32018;59.182;18.148;2022-08-03T09:55:09;2.20;;;0.40;;
46284;SDS011;32018;59.182;18.148;2022-08-03T09:57:35;0.70;;;0.70;;
46284;SDS011;32018;59.182;18.148;2022-08-03T10:00:08;0.93;;;0.50;;
46284;SDS011;32018;59.182;18.148;2022-08-03T10:02:37;1.23;;;0.63;;
46284;SDS011;32018;59.182;18.148;2022-08-03T10:05:03;0.85;;;0.45;;
46284;SDS011;32018;59.182;18.148;2022-08-03T10:07:28;1.23;;;0.60;;
46284;SDS011;32018;59.182;18.148;2022-08-03T10:12:19;0.60;;;0.60;;
46284;SDS011;32018;59.182;18.148;2022-08-03T10:14:44;2.00;;;0.52;;
46284;SDS011;32018;59.182;18.148;2022-08-03T10:17:10;0.57;;;0.57;;
46284;SDS011;32018;59.182;18.148;2022-08-03T10:19:36;1.55;;;0.43;;
46284;SDS011;32018;59.182;18.148;2022-08-03T10:22:02;1.52;;;1.30;;
46284;SDS011;32018;59.182;18.148;2022-08-03T10:24:28;0.82;;;0.60;;
46284;SDS011;32018;59.182;18.148;2022-08-03T10:27:04;1.20;;;0.88;;
46284;SDS011;32018;59.182;18.148;2022-08-03T10:29:32;0.65;;;0.60;;
46284;SDS011;32018;59.182;18.148;2022-08-03T10:31:58;2.85;;;0.90;;
46284;SDS011;32018;59.182;18.148;2022-08-03T10:34:25;1.13;;;0.60;;
46284;SDS011;32018;59.182;18.148;2022-08-03T10:36:51;2.00;;;0.93;;
46284;SDS011;32018;59.182;18.148;2022-08-03T10:39:18;2.58;;;0.80;;
46284;SDS011;32018;59.182;18.148;2022-08-03T10:41:45;0.65;;;0.50;;
46284;SDS011;32018;59.182;18.148;2022-08-03T10:44:14;1.67;;;0.70;;
46284;SDS011;32018;59.182;18.148;2022-08-03T10:46:41;1.17;;;1.00;;
46284;SDS011;32018;59.182;18.148;2022-08-03T10:49:07;1.02;;;0.68;;
46284;SDS011;32018;59.182;18.148;2022-08-03T10:51:33;1.48;;;0.73;;
46284;SDS011;32018;59.182;18.148;2022-08-03T10:53:58;2.08;;;1.73;;
46284;SDS011;32018;59.182;18.148;2022-08-03T10:59:17;1.00;;;0.60;;
46284;SDS011;32018;59.182;18.148;2022-08-03T11:01:53;1.50;;;0.60;;
46284;SDS011;32018;59.182;18.148;2022-08-03T11:04:19;1.20;;;0.80;;
46284;SDS011;32018;59.182;18.148;2022-08-03T11:06:44;1.10;;;0.82;;
46284;SDS011;32018;59.182;18.148;2022-08-03T11:11:38;2.38;;;0.90;;
46284;SDS011;32018;59.182;18.148;2022-08-03T11:14:07;2.95;;;0.73;;
46284;SDS011;32018;59.182;18.148;2022-08-03T11:16:37;2.10;;;1.10;;
46284;SDS011;32018;59.182;18.148;2022-08-03T11:19:07;2.20;;;0.87;;
46284;SDS011;32018;59.182;18.148;2022-08-03T11:29:53;4.03;;;1.05;;
46284;SDS011;32018;59.182;18.148;2022-08-03T11:35:10;0.77;;;0.60;;
46284;SDS011;32018;59.182;18.148;2022-08-03T11:38:00;0.60;;;0.60;;
46284;SDS011;32018;59.182;18.148;2022-08-03T11:43:06;1.23;;;0.70;;
46284;SDS011;32018;59.182;18.148;2022-08-03T11:45:32;0.75;;;0.60;;
46284;SDS011;32018;59.182;18.148;2022-08-03T11:47:59;1.27;;;0.60;;
46284;SDS011;32018;59.182;18.148;2022-08-03T11:50:26;2.17;;;1.30;;
46284;SDS011;32018;59.182;18.148;2022-08-03T11:52:59;1.15;;;0.90;;
46284;SDS011;32018;59.182;18.148;2022-08-03T11:55:24;0.97;;;0.90;;
46284;SDS011;32018;59.182;18.148;2022-08-03T11:57:50;0.82;;;0.50;;
46284;SDS011;32018;59.182;18.148;2022-08-03T12:00:22;0.63;;;0.43;;
46284;SDS011;32018;59.182;18.148;2022-08-03T12:03:04;0.90;;;0.68;;
46284;SDS011;32018;59.182;18.148;2022-08-03T12:07:58;0.80;;;0.50;;
46284;SDS011;32018;59.182;18.148;2022-08-03T12:10:23;0.80;;;0.68;;
46284;SDS011;32018;59.182;18.148;2022-08-03T12:12:53;0.50;;;0.50;;
46284;SDS011;32018;59.182;18.148;2022-08-03T12:15:23;3.35;;;1.00;;
46284;SDS011;32018;59.182;18.148;2022-08-03T12:17:48;1.27;;;0.77;;
46284;SDS011;32018;59.182;18.148;2022-08-03T12:20:19;2.10;;;0.70;;
46284;SDS011;32018;59.182;18.148;2022-08-03T12:22:45;0.98;;;0.60;;
46284;SDS011;32018;59.182;18.148;2022-08-03T12:25:17;0.90;;;0.70;;
46284;SDS011;32018;59.182;18.148;2022-08-03T12:27:44;1.30;;;0.60;;
46284;SDS011;32018;59.182;18.148;2022-08-03T12:30:09;1.80;;;0.77;;
46284;SDS011;32018;59.182;18.148;2022-08-03T12:32:35;0.93;;;0.60;;
46284;SDS011;32018;59.182;18.148;2022-08-03T12:35:00;2.35;;;1.50;;
46284;SDS011;32018;59.182;18.148;2022-08-03T12:37:28;1.88;;;1.02;;
46284;SDS011;32018;59.182;18.148;2022-08-03T12:39:54;0.95;;;0.82;;
46284;SDS011;32018;59.182;18.148;2022-08-03T12:42:20;3.03;;;1.08;;
46284;SDS011;32018;59.182;18.148;2022-08-03T12:44:45;1.50;;;0.70;;
46284;SDS011;32018;59.182;18.148;2022-08-03T12:47:13;2.08;;;1.20;;
46284;SDS011;32018;59.182;18.148;2022-08-03T12:49:49;1.75;;;0.80;;
46284;SDS011;32018;59.182;18.148;2022-08-03T12:52:15;1.45;;;0.88;;
46284;SDS011;32018;59.182;18.148;2022-08-03T12:54:41;1.17;;;0.65;;
46284;SDS011;32018;59.182;18.148;2022-08-03T12:57:11;1.73;;;0.98;;
46284;SDS011;32018;59.182;18.148;2022-08-03T12:59:37;1.77;;;0.73;;
46284;SDS011;32018;59.182;18.148;2022-08-03T13:02:22;1.95;;;1.00;;
46284;SDS011;32018;59.182;18.148;2022-08-03T13:04:48;1.40;;;0.68;;
46284;SDS011;32018;59.182;18.148;2022-08-03T13:07:14;1.10;;;0.90;;
46284;SDS011;32018;59.182;18.148;2022-08-03T13:12:15;1.00;;;0.80;;
46284;SDS011;32018;59.182;18.148;2022-08-03T13:14:41;5.25;;;0.90;;
46284;SDS011;32018;59.182;18.148;2022-08-03T13:17:07;10.25;;;0.90;;
46284;SDS011;32018;59.182;18.148;2022-08-03T13:19:33;2.05;;;0.95;;
46284;SDS011;32018;59.182;18.148;2022-08-03T13:21:58;3.10;;;1.40;;
46284;SDS011;32018;59.182;18.148;2022-08-03T13:24:24;2.08;;;0.95;;
46284;SDS011;32018;59.182;18.148;2022-08-03T13:26:49;1.83;;;0.90;;
46284;SDS011;32018;59.182;18.148;2022-08-03T13:29:15;1.48;;;0.90;;
46284;SDS011;32018;59.182;18.148;2022-08-03T13:31:40;1.88;;;0.80;;
46284;SDS011;32018;59.182;18.148;2022-08-03T13:34:06;2.50;;;0.90;;
46284;SDS011;32018;59.182;18.148;2022-08-03T13:36:31;1.83;;;0.60;;
46284;SDS011;32018;59.182;18.148;2022-08-03T13:38:56;1.33;;;0.90;;
46284;SDS011;32018;59.182;18.148;2022-08-03T13:41:21;2.50;;;0.93;;
46284;SDS011;32018;59.182;18.148;2022-08-03T13:43:47;1.33;;;0.80;;
46284;SDS011;32018;59.182;18.148;2022-08-03T13:46:12;1.13;;;0.93;;
46284;SDS011;32018;59.182;18.148;2022-08-03T13:48:37;2.78;;;1.67;;
46284;SDS011;32018;59.182;18.148;2022-08-03T13:51:02;1.37;;;1.07;;
46284;SDS011;32018;59.182;18.148;2022-08-03T13:53:28;2.42;;;1.23;;
46284;SDS011;32018;59.182;18.148;2022-08-03T13:55:53;2.37;;;1.43;;
46284;SDS011;32018;59.182;18.148;2022-08-03T13:58:18;3.05;;;1.30;;
46284;SDS011;32018;59.182;18.148;2022-08-03T14:00:43;1.23;;;0.88;;
46284;SDS011;32018;59.182;18.148;2022-08-03T14:03:09;1.67;;;1.08;;
46284;SDS011;32018;59.182;18.148;2022-08-03T14:05:34;1.33;;;1.23;;
46284;SDS011;32018;59.182;18.148;2022-08-03T14:08:02;1.38;;;0.70;;
46284;SDS011;32018;59.182;18.148;2022-08-03T14:10:29;2.72;;;1.13;;
46284;SDS011;32018;59.182;18.148;2022-08-03T14:12:54;3.00;;;1.00;;
46284;SDS011;32018;59.182;18.148;2022-08-03T14:15:20;1.27;;;1.00;;
46284;SDS011;32018;59.182;18.148;2022-08-03T14:17:46;3.95;;;2.10;;
46284;SDS011;32018;59.182;18.148;2022-08-03T14:20:11;2.40;;;1.20;;
46284;SDS011;32018;59.182;18.148;2022-08-03T14:22:38;3.60;;;1.45;;
46284;SDS011;32018;59.182;18.148;2022-08-03T14:25:03;2.80;;;1.30;;
46284;SDS011;32018;59.182;18.148;2022-08-03T14:27:29;3.53;;;1.52;;
46284;SDS011;32018;59.182;18.148;2022-08-03T14:29:54;2.40;;;1.57;;
46284;SDS011;32018;59.182;18.148;2022-08-03T14:32:23;2.55;;;1.30;;
46284;SDS011;32018;59.182;18.148;2022-08-03T14:34:48;4.32;;;1.35;;
46284;SDS011;32018;59.182;18.148;2022-08-03T14:37:14;5.25;;;1.45;;
46284;SDS011;32018;59.182;18.148;2022-08-03T14:39:39;3.33;;;1.33;;
46284;SDS011;32018;59.182;18.148;2022-08-03T14:42:04;2.33;;;1.30;;
46284;SDS011;32018;59.182;18.148;2022-08-03T14:44:30;1.52;;;1.08;;
46284;SDS011;32018;59.182;18.148;2022-08-03T14:46:55;3.40;;;1.50;;
46284;SDS011;32018;59.182;18.148;2022-08-03T14:49:20;6.67;;;2.10;;
46284;SDS011;32018;59.182;18.148;2022-08-03T14:51:46;2.83;;;1.77;;
46284;SDS011;32018;59.182;18.148;2022-08-03T14:54:11;1.60;;;1.23;;
46284;SDS011;32018;59.182;18.148;2022-08-03T14:56:36;2.28;;;1.02;;
46284;SDS011;32018;59.182;18.148;2022-08-03T14:59:01;2.35;;;1.35;;
46284;SDS011;32018;59.182;18.148;2022-08-03T15:01:27;4.33;;;1.10;;
46284;SDS011;32018;59.182;18.148;2022-08-03T15:03:52;2.60;;;1.10;;
46284;SDS011;32018;59.182;18.148;2022-08-03T15:06:17;2.00;;;1.10;;
46284;SDS011;32018;59.182;18.148;2022-08-03T15:08:42;3.03;;;0.97;;
46284;SDS011;32018;59.182;18.148;2022-08-03T15:11:08;2.95;;;1.20;;
46284;SDS011;32018;59.182;18.148;2022-08-03T15:13:33;2.73;;;1.00;;
46284;SDS011;32018;59.182;18.148;2022-08-03T15:15:58;3.20;;;1.17;;
46284;SDS011;32018;59.182;18.148;2022-08-03T15:18:23;1.50;;;1.10;;
46284;SDS011;32018;59.182;18.148;2022-08-03T15:20:49;2.70;;;1.03;;